AVX weather

Catalina Airport
Avalon, California, United States

Public forecast

Using degrees Fahrenheit for public forecast. Weather courtesy of forecast.io.

METAR (pilot weather report)

Retrieved 2019/09/19 08:59 UTC (51 minutes ago):

KAVX 190859Z AUTO 35003KT 3SM HZ FEW002 15/12 A2992 RMK AO2 T01500117

TAF (pilot weather forecast)

Closest forecast is Long Beach /Daugherty Field/ Airport, 28.1 nm (52.0 km) NNE. Retrieved 2019/09/19 06:30 UTC (3 hours ago):

TAF KLGB 190528Z 1906/2006 VRB03KT P6SM SKC FM190900 VRB03KT P6SM OVC012 FM191700 20008KT P6SM SKC FM200200 29008KT P6SM SKC